Time;durP1;ratioP1;P1;durP2;ratioP2;P2;SDS_P1;SDS_P2;PMS_P1;PMS_P2;Temp;Humidity;BMP_temperature;BMP_pressure;BME280_temperature;BME280_humidity;BME280_pressure;Samples;Min_cycle;Max_cycle;Signal;HPM_P1;HPM_P2
2023/06/22 00:01:10;;;;;;;7.18;6.68;;;;;;;;;;2091798;28;20033;-63
2023/06/22 00:02:29;;;;;;;5.90;5.43;;;;;;;;;;2088337;28;20026;-62
2023/06/22 00:03:48;;;;;;;6.80;6.13;;;;;;;;;;2091330;28;20029;-62
2023/06/22 00:05:07;;;;;;;6.97;6.32;;;;;;;;;;2092360;28;20136;-62
2023/06/22 00:06:26;;;;;;;6.15;5.75;;;;;;;;;;2090961;28;20428;-62
2023/06/22 00:07:45;;;;;;;6.60;6.18;;;;;;;;;;2090378;28;20585;-63
2023/06/22 00:09:06;;;;;;;6.43;6.03;;;;;;;;;;2083940;28;20550;-62
2023/06/22 00:10:25;;;;;;;6.78;6.28;;;;;;;;;;2087079;28;20560;-62
2023/06/22 00:11:44;;;;;;;6.90;6.32;;;;;;;;;;2093585;28;21026;-61
2023/06/22 00:13:03;;;;;;;7.00;6.40;;;;;;;;;;2092626;28;20032;-62
2023/06/22 00:14:23;;;;;;;6.85;6.45;;;;;;;;;;2091809;28;20032;-64
2023/06/22 00:15:42;;;;;;;7.50;6.80;;;;;;;;;;2092124;28;20111;-62
2023/06/22 00:17:00;;;;;;;7.65;7.05;;;;;;;;;;2090175;28;20044;-63
2023/06/22 00:18:20;;;;;;;7.20;6.60;;;;;;;;;;2088389;28;19999;-63
2023/06/22 00:19:40;;;;;;;7.45;6.85;;;;;;;;;;2088248;28;20025;-63
2023/06/22 00:20:59;;;;;;;8.07;7.57;;;;;;;;;;2092101;28;20025;-67
2023/06/22 00:22:21;;;;;;;6.78;6.25;;;;;;;;;;2080032;28;20048;-62
2023/06/22 00:23:41;;;;;;;7.63;7.13;;;;;;;;;;2088246;28;20021;-62
2023/06/22 00:25:00;;;;;;;7.03;6.63;;;;;;;;;;2080757;28;20025;-62
2023/06/22 00:26:19;;;;;;;7.45;6.85;;;;;;;;;;2086601;28;20141;-62
2023/06/22 00:27:38;;;;;;;7.80;7.07;;;;;;;;;;2089791;28;24014;-63
2023/06/22 00:28:57;;;;;;;7.63;7.05;;;;;;;;;;2091196;28;20505;-62
2023/06/22 00:30:17;;;;;;;7.63;7.13;;;;;;;;;;2090031;28;20108;-63
2023/06/22 00:31:37;;;;;;;7.60;7.00;;;;;;;;;;2092092;28;20044;-63
2023/06/22 00:32:55;;;;;;;6.90;6.40;;;;;;;;;;2092724;28;20119;-62
2023/06/22 00:34:15;;;;;;;6.70;6.30;;;;;;;;;;2090202;28;20598;-62
2023/06/22 00:35:34;;;;;;;7.55;6.95;;;;;;;;;;2084470;28;20028;-62
2023/06/22 00:36:54;;;;;;;7.55;6.97;;;;;;;;;;2087695;28;20074;-63
2023/06/22 00:38:13;;;;;;;7.22;6.72;;;;;;;;;;2089720;28;20049;-63
2023/06/22 00:39:33;;;;;;;7.28;6.63;;;;;;;;;;2092264;28;20021;-62
2023/06/22 00:40:52;;;;;;;7.50;7.05;;;;;;;;;;2092128;28;20020;-62
2023/06/22 00:42:11;;;;;;;7.75;7.15;;;;;;;;;;2087661;28;20042;-63
2023/06/22 00:43:30;;;;;;;7.35;6.75;;;;;;;;;;2092463;28;20025;-62
2023/06/22 00:44:49;;;;;;;7.53;6.93;;;;;;;;;;2087880;28;20048;-63
2023/06/22 00:46:08;;;;;;;7.80;7.10;;;;;;;;;;2089774;28;20534;-62
2023/06/22 00:47:27;;;;;;;7.10;6.60;;;;;;;;;;2092275;28;20083;-62
2023/06/22 00:48:46;;;;;;;7.45;6.82;;;;;;;;;;2090297;28;20069;-62
2023/06/22 00:50:06;;;;;;;7.10;6.63;;;;;;;;;;2089480;28;20060;-62
2023/06/22 00:51:26;;;;;;;7.93;7.22;;;;;;;;;;2091382;28;20037;-62
2023/06/22 00:52:46;;;;;;;7.70;7.20;;;;;;;;;;2093904;28;20385;-62
2023/06/22 00:54:05;;;;;;;7.25;6.60;;;;;;;;;;2090135;28;20036;-62
2023/06/22 00:55:25;;;;;;;8.10;7.40;;;;;;;;;;2091635;28;20021;-63
2023/06/22 00:56:45;;;;;;;6.88;6.35;;;;;;;;;;2091313;28;20461;-62
2023/06/22 00:58:07;;;;;;;7.28;6.78;;;;;;;;;;2090952;28;20037;-63
2023/06/22 00:59:27;;;;;;;7.45;7.00;;;;;;;;;;2091348;28;20393;-62
2023/06/22 01:00:45;;;;;;;8.13;7.53;;;;;;;;;;2091569;28;20040;-62
2023/06/22 01:02:05;;;;;;;7.78;7.28;;;;;;;;;;2090335;28;20033;-62
2023/06/22 01:03:24;;;;;;;8.30;7.65;;;;;;;;;;2093270;28;20044;-62
2023/06/22 01:04:44;;;;;;;7.85;7.35;;;;;;;;;;2090858;28;20025;-62
2023/06/22 01:06:09;;;;;;;8.90;8.10;;;;;;;;;;2088994;28;20028;-62
2023/06/22 01:07:31;;;;;;;8.20;7.60;;;;;;;;;;2090625;28;20115;-62
2023/06/22 01:09:15;;;;;;;8.77;8.18;;;;;;;;;;2090273;28;20572;-62
2023/06/22 01:10:45;;;;;;;8.70;7.85;;;;;;;;;;2090631;28;20131;-62
2023/06/22 01:12:07;;;;;;;8.95;8.25;;;;;;;;;;2079497;28;20029;-64
2023/06/22 01:13:32;;;;;;;8.70;8.00;;;;;;;;;;2088508;28;20477;-62
2023/06/22 01:15:13;;;;;;;7.97;7.47;;;;;;;;;;2088667;28;20036;-63
2023/06/22 01:16:34;;;;;;;9.48;8.35;;;;;;;;;;2091009;28;20037;-62
2023/06/22 01:17:53;;;;;;;9.63;8.80;;;;;;;;;;2092990;28;20028;-62
2023/06/22 01:19:35;;;;;;;9.25;8.48;;;;;;;;;;2081281;28;20037;-63
2023/06/22 01:20:55;;;;;;;8.77;8.02;;;;;;;;;;2093063;28;20024;-62
2023/06/22 01:22:18;;;;;;;8.60;7.90;;;;;;;;;;2079910;28;20025;-62
2023/06/22 01:23:40;;;;;;;9.30;8.60;;;;;;;;;;2089949;28;20029;-62
2023/06/22 01:25:09;;;;;;;9.23;8.57;;;;;;;;;;2091465;28;20419;-62
2023/06/22 01:26:35;;;;;;;9.38;8.48;;;;;;;;;;2092442;28;20028;-62
2023/06/22 01:27:57;;;;;;;9.45;8.65;;;;;;;;;;2092422;28;20037;-63
2023/06/22 01:29:17;;;;;;;9.75;8.77;;;;;;;;;;2091796;28;20056;-62
2023/06/22 01:30:39;;;;;;;9.73;9.02;;;;;;;;;;2091297;28;20432;-63
2023/06/22 01:31:59;;;;;;;9.20;8.50;;;;;;;;;;2093428;28;20028;-62
2023/06/22 01:33:18;;;;;;;8.90;8.25;;;;;;;;;;2091525;28;20032;-63
2023/06/22 01:34:39;;;;;;;8.98;8.20;;;;;;;;;;2091129;28;20143;-62
2023/06/22 01:35:59;;;;;;;8.32;7.72;;;;;;;;;;2088468;28;20028;-62
2023/06/22 01:37:18;;;;;;;9.43;8.63;;;;;;;;;;2090062;28;20036;-63
2023/06/22 01:38:38;;;;;;;10.23;9.18;;;;;;;;;;2090161;28;20378;-63
2023/06/22 01:39:58;;;;;;;9.88;9.07;;;;;;;;;;2089987;28;20025;-63
2023/06/22 01:41:17;;;;;;;9.18;8.55;;;;;;;;;;2091482;28;20416;-62
2023/06/22 01:42:37;;;;;;;9.57;8.77;;;;;;;;;;2090161;28;20028;-63
2023/06/22 01:43:56;;;;;;;10.02;9.32;;;;;;;;;;2089054;28;20123;-62
2023/06/22 01:45:16;;;;;;;10.60;9.70;;;;;;;;;;2090472;28;20040;-63
2023/06/22 01:46:35;;;;;;;9.88;9.18;;;;;;;;;;2091125;28;20032;-63
2023/06/22 01:47:55;;;;;;;10.35;9.52;;;;;;;;;;2092125;28;20024;-63
2023/06/22 01:49:15;;;;;;;10.43;9.63;;;;;;;;;;2086974;28;20036;-62
2023/06/22 01:50:34;;;;;;;10.07;9.18;;;;;;;;;;2087634;28;20033;-64
2023/06/22 01:51:54;;;;;;;10.15;9.45;;;;;;;;;;2091401;28;20318;-63
2023/06/22 01:53:13;;;;;;;10.38;9.43;;;;;;;;;;2090641;28;20040;-63
2023/06/22 01:54:32;;;;;;;10.65;9.70;;;;;;;;;;2090766;28;20021;-63
2023/06/22 01:55:51;;;;;;;11.30;10.30;;;;;;;;;;2089689;28;20024;-62
2023/06/22 01:57:10;;;;;;;10.10;9.40;;;;;;;;;;2090984;28;20036;-62
2023/06/22 01:58:30;;;;;;;10.88;9.98;;;;;;;;;;2088959;28;21408;-62
2023/06/22 01:59:55;;;;;;;11.65;10.63;;;;;;;;;;2090147;28;20028;-63
2023/06/22 02:01:17;;;;;;;10.82;10.02;;;;;;;;;;2091671;28;20037;-64
2023/06/22 02:02:39;;;;;;;12.87;10.97;;;;;;;;;;2088634;28;20036;-61
2023/06/22 02:04:04;;;;;;;11.05;10.05;;;;;;;;;;2090016;28;20703;-62
2023/06/22 02:05:26;;;;;;;11.00;10.15;;;;;;;;;;2089776;28;20024;-62
2023/06/22 02:06:46;;;;;;;12.23;11.25;;;;;;;;;;2080366;28;20030;-62
2023/06/22 02:08:08;;;;;;;11.95;10.95;;;;;;;;;;2077262;28;20041;-62
2023/06/22 02:09:30;;;;;;;12.30;11.15;;;;;;;;;;2086438;28;20033;-62
2023/06/22 02:10:49;;;;;;;12.23;11.23;;;;;;;;;;2082189;28;20033;-63
2023/06/22 02:12:09;;;;;;;12.02;11.13;;;;;;;;;;2087714;28;20048;-62
2023/06/22 02:13:28;;;;;;;11.68;10.80;;;;;;;;;;2091564;28;20036;-62
2023/06/22 02:14:47;;;;;;;11.60;10.82;;;;;;;;;;2090306;28;20032;-62
2023/06/22 02:16:06;;;;;;;11.63;10.73;;;;;;;;;;2091599;28;20036;-62
2023/06/22 02:17:25;;;;;;;12.50;11.50;;;;;;;;;;2091064;28;20037;-62
2023/06/22 02:18:50;;;;;;;11.75;10.85;;;;;;;;;;2091526;28;20032;-62
2023/06/22 02:20:12;;;;;;;11.30;10.50;;;;;;;;;;2089447;28;20060;-62
2023/06/22 02:21:31;;;;;;;11.40;10.60;;;;;;;;;;2091832;28;20032;-65
2023/06/22 02:22:50;;;;;;;12.52;11.18;;;;;;;;;;2092359;28;20028;-63
2023/06/22 02:24:08;;;;;;;11.68;10.57;;;;;;;;;;2092193;28;20041;-63
2023/06/22 02:25:27;;;;;;;11.88;10.80;;;;;;;;;;2090488;28;20062;-62
2023/06/22 02:26:46;;;;;;;11.82;10.90;;;;;;;;;;2090226;28;20037;-62
2023/06/22 02:28:05;;;;;;;11.15;10.18;;;;;;;;;;2089614;28;20036;-62
2023/06/22 02:29:24;;;;;;;12.25;11.20;;;;;;;;;;2089640;28;20037;-62
2023/06/22 02:30:43;;;;;;;10.90;10.20;;;;;;;;;;2091185;28;20029;-63
2023/06/22 02:32:03;;;;;;;12.27;11.07;;;;;;;;;;2092779;28;20060;-62
2023/06/22 02:33:22;;;;;;;12.00;11.10;;;;;;;;;;2081004;28;20523;-62
2023/06/22 02:34:42;;;;;;;10.82;10.02;;;;;;;;;;2089301;28;20112;-62
2023/06/22 02:36:05;;;;;;;11.15;10.23;;;;;;;;;;2091188;28;20025;-62
2023/06/22 02:37:24;;;;;;;11.93;11.07;;;;;;;;;;2090676;28;20033;-63
2023/06/22 02:38:48;;;;;;;11.30;10.38;;;;;;;;;;2092954;28;20100;-63
2023/06/22 02:40:10;;;;;;;14.80;11.10;;;;;;;;;;2081489;28;20152;-63
2023/06/22 02:41:29;;;;;;;11.05;10.25;;;;;;;;;;2089920;28;20016;-63
2023/06/22 02:42:48;;;;;;;11.38;10.57;;;;;;;;;;2089959;28;20020;-63
2023/06/22 02:44:07;;;;;;;11.40;10.50;;;;;;;;;;2091565;28;20028;-63
2023/06/22 02:45:26;;;;;;;10.85;9.85;;;;;;;;;;2091003;28;20029;-62
2023/06/22 02:46:45;;;;;;;11.30;10.50;;;;;;;;;;2091757;28;20025;-63
2023/06/22 02:48:04;;;;;;;10.73;9.93;;;;;;;;;;2092240;28;20482;-63
2023/06/22 02:49:23;;;;;;;11.27;10.40;;;;;;;;;;2090551;28;20041;-63
2023/06/22 02:50:42;;;;;;;10.10;9.40;;;;;;;;;;2090778;28;20040;-63
2023/06/22 02:52:01;;;;;;;11.73;10.75;;;;;;;;;;2091640;28;20028;-63
2023/06/22 02:53:20;;;;;;;11.02;10.10;;;;;;;;;;2089889;28;20052;-63
2023/06/22 02:54:39;;;;;;;11.55;10.57;;;;;;;;;;2089333;28;20032;-63
2023/06/22 02:56:01;;;;;;;10.27;9.57;;;;;;;;;;2089659;28;20040;-63
2023/06/22 02:57:20;;;;;;;10.63;9.82;;;;;;;;;;2083393;28;20393;-63
2023/06/22 02:58:39;;;;;;;10.88;9.98;;;;;;;;;;2090432;28;20016;-63
2023/06/22 02:59:58;;;;;;;11.65;10.65;;;;;;;;;;2090591;28;20034;-64
2023/06/22 03:01:23;;;;;;;10.57;9.57;;;;;;;;;;2090265;28;20482;-63
2023/06/22 03:02:41;;;;;;;10.60;9.57;;;;;;;;;;2089637;28;20483;-64
2023/06/22 03:04:01;;;;;;;11.07;10.07;;;;;;;;;;2082980;28;20100;-63
2023/06/22 03:05:20;;;;;;;10.75;9.95;;;;;;;;;;2088205;28;20037;-63
2023/06/22 03:06:40;;;;;;;10.95;10.15;;;;;;;;;;2091010;28;20025;-64
2023/06/22 03:07:59;;;;;;;10.85;9.95;;;;;;;;;;2088940;28;20029;-63
2023/06/22 03:09:18;;;;;;;11.48;10.48;;;;;;;;;;2089686;28;20025;-63
2023/06/22 03:10:37;;;;;;;10.35;9.60;;;;;;;;;;2090504;28;20028;-63
2023/06/22 03:11:56;;;;;;;10.82;10.02;;;;;;;;;;2092080;28;20024;-63
2023/06/22 03:13:16;;;;;;;11.32;10.43;;;;;;;;;;2082599;28;20034;-66
2023/06/22 03:14:35;;;;;;;10.32;9.35;;;;;;;;;;2086846;28;20033;-63
2023/06/22 03:15:54;;;;;;;10.63;9.85;;;;;;;;;;2089127;28;20032;-63
2023/06/22 03:17:13;;;;;;;10.90;10.00;;;;;;;;;;2092252;28;20029;-69
2023/06/22 03:18:32;;;;;;;11.20;10.25;;;;;;;;;;2092515;28;20040;-63
2023/06/22 03:19:51;;;;;;;10.93;9.95;;;;;;;;;;2089133;28;20021;-65
2023/06/22 03:21:10;;;;;;;10.60;9.80;;;;;;;;;;2091492;28;20870;-65
2023/06/22 03:22:29;;;;;;;10.98;10.10;;;;;;;;;;2092811;28;20485;-63
2023/06/22 03:23:48;;;;;;;10.38;9.63;;;;;;;;;;2091609;28;20060;-63
2023/06/22 03:25:10;;;;;;;9.98;9.30;;;;;;;;;;2091094;28;20056;-64
2023/06/22 03:26:29;;;;;;;11.15;10.25;;;;;;;;;;2090132;28;20057;-64
2023/06/22 03:27:48;;;;;;;11.02;10.32;;;;;;;;;;2090172;28;20037;-64
2023/06/22 03:29:07;;;;;;;10.30;9.57;;;;;;;;;;2090315;28;20028;-63
2023/06/22 03:30:26;;;;;;;10.52;9.57;;;;;;;;;;2090846;28;20067;-63
2023/06/22 03:31:45;;;;;;;10.38;9.52;;;;;;;;;;2087628;28;20405;-64
2023/06/22 03:33:04;;;;;;;10.10;9.50;;;;;;;;;;2086889;28;20021;-63
2023/06/22 03:34:23;;;;;;;10.52;9.80;;;;;;;;;;2089978;28;20036;-64
2023/06/22 03:35:42;;;;;;;11.50;10.55;;;;;;;;;;2089014;28;20024;-62
2023/06/22 03:37:01;;;;;;;10.73;9.98;;;;;;;;;;2090046;28;20033;-63
2023/06/22 03:38:20;;;;;;;10.90;10.05;;;;;;;;;;2090725;28;20151;-63
2023/06/22 03:39:39;;;;;;;10.82;9.98;;;;;;;;;;2089783;28;20040;-64
2023/06/22 03:40:57;;;;;;;12.30;11.00;;;;;;;;;;2088933;28;20498;-63
2023/06/22 03:42:16;;;;;;;10.75;9.95;;;;;;;;;;2090413;28;20161;-64
2023/06/22 03:43:35;;;;;;;10.82;9.90;;;;;;;;;;2089608;28;20104;-63
2023/06/22 03:44:54;;;;;;;11.00;10.20;;;;;;;;;;2087744;28;20453;-63
2023/06/22 03:46:13;;;;;;;11.43;10.60;;;;;;;;;;2079594;28;20033;-67
2023/06/22 03:47:33;;;;;;;11.35;10.40;;;;;;;;;;2087498;28;20024;-65
2023/06/22 03:48:52;;;;;;;10.55;9.85;;;;;;;;;;2093494;28;20394;-64
2023/06/22 03:50:11;;;;;;;11.52;10.43;;;;;;;;;;2083698;28;20510;-63
2023/06/22 03:51:30;;;;;;;11.18;10.05;;;;;;;;;;2085054;28;20082;-63
2023/06/22 03:52:52;;;;;;;11.00;10.30;;;;;;;;;;2091767;28;20033;-65
2023/06/22 03:54:11;;;;;;;11.90;10.20;;;;;;;;;;2090651;28;20356;-63
2023/06/22 03:55:30;;;;;;;11.10;10.30;;;;;;;;;;2091019;28;20045;-63
2023/06/22 03:56:49;;;;;;;10.45;9.75;;;;;;;;;;2089714;28;20508;-63
2023/06/22 03:58:09;;;;;;;10.93;10.13;;;;;;;;;;2089475;28;20424;-63
2023/06/22 03:59:28;;;;;;;11.27;10.32;;;;;;;;;;2091084;28;20029;-63
2023/06/22 04:00:50;;;;;;;10.85;9.90;;;;;;;;;;2093097;28;20021;-64
2023/06/22 04:02:09;;;;;;;10.90;10.07;;;;;;;;;;2090943;28;20526;-63
2023/06/22 04:03:28;;;;;;;10.52;9.65;;;;;;;;;;2091084;28;20037;-64
2023/06/22 04:04:47;;;;;;;11.32;10.20;;;;;;;;;;2089559;28;20157;-63
2023/06/22 04:06:06;;;;;;;10.23;9.48;;;;;;;;;;2088120;28;20394;-63
2023/06/22 04:07:27;;;;;;;10.50;9.70;;;;;;;;;;2089531;28;20049;-63
2023/06/22 04:08:50;;;;;;;10.45;9.65;;;;;;;;;;2091639;28;20025;-63
2023/06/22 04:10:10;;;;;;;10.57;9.85;;;;;;;;;;2089469;28;20029;-63
2023/06/22 04:11:29;;;;;;;10.23;9.32;;;;;;;;;;2088732;28;20638;-63
2023/06/22 04:12:48;;;;;;;10.75;9.88;;;;;;;;;;2089152;28;20033;-68
2023/06/22 04:14:07;;;;;;;10.20;9.52;;;;;;;;;;2089205;28;20096;-63
2023/06/22 04:15:26;;;;;;;9.70;9.10;;;;;;;;;;2090139;28;20773;-63
2023/06/22 04:16:45;;;;;;;10.68;9.98;;;;;;;;;;2087838;28;20423;-63
2023/06/22 04:18:04;;;;;;;10.82;9.90;;;;;;;;;;2090516;28;20024;-64
2023/06/22 04:19:24;;;;;;;10.02;8.88;;;;;;;;;;2088740;28;20120;-63
2023/06/22 04:20:44;;;;;;;10.18;9.38;;;;;;;;;;2091657;28;20025;-63
2023/06/22 04:22:03;;;;;;;10.20;9.38;;;;;;;;;;2091734;28;20029;-62
2023/06/22 04:23:22;;;;;;;10.60;9.70;;;;;;;;;;2088391;28;20052;-62
2023/06/22 04:24:41;;;;;;;10.18;9.48;;;;;;;;;;2089629;28;20390;-66
2023/06/22 04:26:00;;;;;;;10.32;9.20;;;;;;;;;;2089906;28;20983;-62
2023/06/22 04:27:19;;;;;;;10.43;9.60;;;;;;;;;;2090146;28;20028;-62
2023/06/22 04:28:38;;;;;;;10.30;9.55;;;;;;;;;;2091567;28;20017;-62
2023/06/22 04:30:00;;;;;;;9.30;8.60;;;;;;;;;;2090484;28;20025;-62
2023/06/22 04:31:19;;;;;;;9.70;9.00;;;;;;;;;;2091439;28;20033;-63
2023/06/22 04:32:39;;;;;;;9.40;8.75;;;;;;;;;;2091606;28;20025;-62
2023/06/22 04:34:05;;;;;;;10.00;9.13;;;;;;;;;;2088311;28;20032;-62
2023/06/22 04:35:25;;;;;;;9.82;9.00;;;;;;;;;;2087767;28;20554;-62
2023/06/22 04:36:44;;;;;;;10.10;9.18;;;;;;;;;;2079160;28;20061;-62
2023/06/22 04:38:03;;;;;;;10.25;9.35;;;;;;;;;;2087594;28;20510;-61
2023/06/22 04:39:23;;;;;;;9.45;8.82;;;;;;;;;;2092959;28;20025;-62
2023/06/22 04:40:42;;;;;;;10.13;9.32;;;;;;;;;;2090616;28;20024;-62
2023/06/22 04:42:02;;;;;;;10.00;9.30;;;;;;;;;;2090848;28;20393;-62
2023/06/22 04:43:21;;;;;;;9.15;8.55;;;;;;;;;;2089046;28;20024;-62
2023/06/22 04:44:41;;;;;;;9.85;8.98;;;;;;;;;;2089429;28;20025;-63
2023/06/22 04:46:03;;;;;;;10.45;8.10;;;;;;;;;;2090934;28;20428;-62
2023/06/22 04:47:22;;;;;;;8.55;8.05;;;;;;;;;;2088927;28;20067;-62
2023/06/22 04:52:36;;;;;;;9.07;8.48;;;;;;;;;;2094219;22;20041;-79
2023/06/22 04:54:01;;;;;;;8.57;8.02;;;;;;;;;;2069627;28;20037;-80
2023/06/22 04:55:20;;;;;;;8.95;8.07;;;;;;;;;;2079095;28;20081;-80
2023/06/22 04:56:40;;;;;;;8.68;8.10;;;;;;;;;;2074845;28;20030;-77
2023/06/22 04:58:04;;;;;;;9.57;8.73;;;;;;;;;;2065235;28;20992;-80
2023/06/22 04:59:27;;;;;;;9.68;8.93;;;;;;;;;;2069385;28;20029;-80
2023/06/22 05:00:47;;;;;;;9.30;8.55;;;;;;;;;;2069133;28;20503;-80
2023/06/22 05:02:06;;;;;;;9.18;8.27;;;;;;;;;;2076516;28;20469;-80
2023/06/22 05:03:25;;;;;;;9.65;8.75;;;;;;;;;;2081628;28;20022;-79
2023/06/22 05:04:44;;;;;;;8.82;7.90;;;;;;;;;;2072430;28;20217;-79
2023/06/22 05:06:04;;;;;;;12.65;8.57;;;;;;;;;;2077152;28;20534;-78
2023/06/22 05:07:25;;;;;;;8.68;7.60;;;;;;;;;;2072822;28;20030;-78
2023/06/22 05:08:44;;;;;;;8.07;7.53;;;;;;;;;;2077172;28;20448;-79
2023/06/22 05:10:04;;;;;;;9.52;8.68;;;;;;;;;;2081152;28;20061;-78
2023/06/22 05:11:27;;;;;;;9.30;8.02;;;;;;;;;;2079860;28;20026;-79
2023/06/22 05:12:46;;;;;;;8.25;7.55;;;;;;;;;;2079766;28;20022;-82
2023/06/22 05:14:05;;;;;;;8.45;7.65;;;;;;;;;;2079472;28;20105;-80
2023/06/22 05:15:27;;;;;;;8.20;7.45;;;;;;;;;;2069948;28;20034;-77
2023/06/22 05:16:46;;;;;;;8.13;7.40;;;;;;;;;;2068815;28;20022;-79
2023/06/22 05:18:06;;;;;;;8.80;8.13;;;;;;;;;;2067299;28;20030;-79
2023/06/22 05:19:31;;;;;;;8.77;8.18;;;;;;;;;;2070906;28;20030;-79
2023/06/22 05:20:50;;;;;;;8.15;7.60;;;;;;;;;;2068979;28;20030;-81
2023/06/22 05:22:09;;;;;;;8.98;8.38;;;;;;;;;;2070510;28;20042;-77
2023/06/22 05:23:28;;;;;;;9.07;8.20;;;;;;;;;;2071117;28;20029;-77
2023/06/22 05:24:47;;;;;;;8.30;7.45;;;;;;;;;;2075446;28;20029;-78
2023/06/22 05:26:09;;;;;;;8.55;7.85;;;;;;;;;;2072227;28;20025;-78
2023/06/22 05:27:28;;;;;;;8.55;7.70;;;;;;;;;;2068403;28;20105;-78
2023/06/22 05:28:47;;;;;;;8.80;7.90;;;;;;;;;;2067588;28;20093;-78
2023/06/22 05:30:07;;;;;;;8.30;7.60;;;;;;;;;;2069575;28;20030;-78
2023/06/22 05:31:27;;;;;;;8.07;7.47;;;;;;;;;;2077162;28;20044;-79
2023/06/22 05:32:46;;;;;;;7.97;7.13;;;;;;;;;;2070337;28;20053;-77
2023/06/22 05:34:05;;;;;;;7.85;7.35;;;;;;;;;;2066316;28;20030;-80
2023/06/22 05:35:24;;;;;;;8.05;6.70;;;;;;;;;;2071475;28;20030;-79
2023/06/22 05:36:43;;;;;;;7.70;6.93;;;;;;;;;;2066466;28;20066;-78
2023/06/22 05:38:03;;;;;;;8.18;7.57;;;;;;;;;;2076789;28;20025;-78
2023/06/22 05:39:22;;;;;;;8.02;7.40;;;;;;;;;;2071407;28;20033;-77
2023/06/22 05:40:40;;;;;;;7.90;7.20;;;;;;;;;;2072150;28;20167;-78
2023/06/22 05:42:00;;;;;;;8.15;7.55;;;;;;;;;;2077804;28;20017;-78
2023/06/22 05:43:18;;;;;;;7.80;7.30;;;;;;;;;;2072270;28;20034;-78
2023/06/22 05:44:39;;;;;;;11.52;7.13;;;;;;;;;;2078016;28;21190;-78
2023/06/22 05:45:58;;;;;;;7.10;6.60;;;;;;;;;;2072979;28;20017;-78
2023/06/22 05:47:18;;;;;;;7.25;6.75;;;;;;;;;;2063685;28;20030;-78
2023/06/22 05:48:37;;;;;;;6.85;6.30;;;;;;;;;;2065371;28;20019;-79
2023/06/22 05:49:58;;;;;;;6.70;6.20;;;;;;;;;;2061354;28;20018;-80
2023/06/22 05:51:18;;;;;;;6.68;6.18;;;;;;;;;;2059733;28;20027;-78
2023/06/22 05:52:37;;;;;;;6.95;6.35;;;;;;;;;;2061986;28;20031;-75
2023/06/22 05:53:56;;;;;;;6.82;6.40;;;;;;;;;;2068360;28;20034;-78
2023/06/22 05:55:18;;;;;;;6.50;6.10;;;;;;;;;;2057845;28;20049;-78
2023/06/22 05:56:37;;;;;;;6.28;5.88;;;;;;;;;;2068945;28;20022;-78
2023/06/22 05:57:56;;;;;;;6.55;6.13;;;;;;;;;;2063868;28;20117;-79
2023/06/22 05:59:15;;;;;;;6.60;6.10;;;;;;;;;;2070621;28;20052;-78
2023/06/22 06:00:34;;;;;;;7.10;6.35;;;;;;;;;;2072497;28;20101;-80
2023/06/22 06:01:53;;;;;;;6.75;6.35;;;;;;;;;;2067231;28;20522;-78
2023/06/22 06:03:16;;;;;;;6.45;6.05;;;;;;;;;;2066329;28;20022;-78
2023/06/22 06:04:37;;;;;;;9.63;6.68;;;;;;;;;;2064262;28;20030;-79
2023/06/22 06:05:56;;;;;;;7.82;6.40;;;;;;;;;;2069208;28;20029;-80
2023/06/22 06:07:15;;;;;;;7.18;6.53;;;;;;;;;;2064847;28;20058;-78
2023/06/22 06:08:34;;;;;;;6.25;5.75;;;;;;;;;;2059716;28;20034;-83
2023/06/22 06:09:53;;;;;;;6.60;6.10;;;;;;;;;;2069754;28;20590;-79
2023/06/22 06:11:12;;;;;;;6.93;6.43;;;;;;;;;;2063537;28;20029;-78
2023/06/22 06:12:32;;;;;;;6.60;5.88;;;;;;;;;;2067781;28;20491;-79
2023/06/22 06:13:51;;;;;;;6.78;6.22;;;;;;;;;;2073920;28;20496;-79
2023/06/22 06:15:10;;;;;;;7.00;6.50;;;;;;;;;;2072139;28;20097;-80
2023/06/22 06:16:29;;;;;;;7.45;6.85;;;;;;;;;;2066872;28;20515;-80
2023/06/22 06:17:51;;;;;;;6.80;6.30;;;;;;;;;;2070597;28;20041;-80
2023/06/22 06:19:10;;;;;;;7.25;6.85;;;;;;;;;;2073035;28;20483;-81
2023/06/22 06:20:29;;;;;;;7.32;6.90;;;;;;;;;;2065862;28;20031;-80
2023/06/22 06:21:49;;;;;;;7.85;7.15;;;;;;;;;;2064179;28;20035;-78
2023/06/22 06:23:08;;;;;;;8.32;7.45;;;;;;;;;;2064332;28;20105;-82
2023/06/22 06:24:27;;;;;;;7.30;6.75;;;;;;;;;;2070898;28;20441;-78
2023/06/22 06:25:46;;;;;;;6.82;6.13;;;;;;;;;;2069080;28;20030;-79
2023/06/22 06:27:05;;;;;;;7.38;6.53;;;;;;;;;;2074216;28;20049;-80
2023/06/22 06:28:24;;;;;;;9.05;6.60;;;;;;;;;;2061144;28;20045;-80
2023/06/22 06:29:47;;;;;;;8.95;6.40;;;;;;;;;;2069035;28;20105;-80
2023/06/22 06:31:08;;;;;;;11.98;6.45;;;;;;;;;;2071236;28;20414;-82
2023/06/22 06:32:27;;;;;;;8.45;6.22;;;;;;;;;;2065506;28;20026;-83
2023/06/22 06:33:47;;;;;;;6.68;6.07;;;;;;;;;;2059519;28;20022;-80
2023/06/22 06:35:06;;;;;;;6.70;6.10;;;;;;;;;;2068843;28;20038;-83
2023/06/22 06:36:25;;;;;;;7.13;6.32;;;;;;;;;;2061798;28;20038;-82
2023/06/22 06:37:46;;;;;;;6.25;5.82;;;;;;;;;;2060693;28;20038;-76
2023/06/22 06:39:05;;;;;;;7.65;5.43;;;;;;;;;;2068314;28;20452;-81
2023/06/22 06:40:24;;;;;;;7.13;5.82;;;;;;;;;;2069961;28;20057;-82
2023/06/22 06:41:43;;;;;;;6.05;5.40;;;;;;;;;;2068885;28;20034;-81
2023/06/22 06:43:02;;;;;;;8.02;5.70;;;;;;;;;;2073484;28;20026;-83
2023/06/22 06:44:21;;;;;;;6.65;6.05;;;;;;;;;;2065433;28;20412;-85
2023/06/22 06:45:41;;;;;;;6.72;5.38;;;;;;;;;;2062728;28;20026;-82
2023/06/22 06:47:00;;;;;;;5.85;5.25;;;;;;;;;;2062228;28;20079;-80
2023/06/22 06:48:18;;;;;;;5.93;5.35;;;;;;;;;;2061144;28;20152;-81
2023/06/22 06:49:37;;;;;;;7.18;5.47;;;;;;;;;;2069516;28;20038;-80
2023/06/22 06:50:59;;;;;;;5.80;5.28;;;;;;;;;;2075422;28;20398;-82
2023/06/22 06:52:19;;;;;;;6.45;5.25;;;;;;;;;;2065097;28;20038;-81
2023/06/22 06:53:38;;;;;;;6.00;5.25;;;;;;;;;;2062033;28;20140;-80
2023/06/22 06:54:57;;;;;;;11.73;5.18;;;;;;;;;;2062561;28;20065;-79
2023/06/22 06:56:16;;;;;;;13.00;5.80;;;;;;;;;;2060004;28;20042;-79
2023/06/22 06:57:37;;;;;;;7.75;5.20;;;;;;;;;;2061716;28;20109;-82
2023/06/22 06:58:56;;;;;;;7.35;5.60;;;;;;;;;;2060373;28;20027;-82
2023/06/22 07:00:15;;;;;;;7.45;5.10;;;;;;;;;;2060172;28;20034;-82
2023/06/22 07:01:35;;;;;;;5.47;4.75;;;;;;;;;;2060150;28;20035;-82
2023/06/22 07:02:55;;;;;;;6.13;5.38;;;;;;;;;;2069108;28;20073;-81
2023/06/22 07:04:14;;;;;;;5.32;4.88;;;;;;;;;;2063912;28;20026;-83
2023/06/22 07:05:33;;;;;;;5.55;5.07;;;;;;;;;;2060898;28;20074;-81
2023/06/22 07:06:53;;;;;;;6.10;4.78;;;;;;;;;;2066063;28;20029;-80
2023/06/22 07:08:13;;;;;;;5.45;5.05;;;;;;;;;;2066231;28;20038;-81
2023/06/22 07:09:32;;;;;;;7.05;4.80;;;;;;;;;;2069839;28;20026;-82
2023/06/22 07:10:51;;;;;;;5.10;4.70;;;;;;;;;;2062830;28;20034;-81
2023/06/22 07:12:13;;;;;;;5.60;5.07;;;;;;;;;;2068095;28;20025;-80
2023/06/22 07:13:33;;;;;;;5.30;4.90;;;;;;;;;;2061565;28;20030;-80
2023/06/22 07:14:53;;;;;;;5.13;4.63;;;;;;;;;;2061525;28;20038;-81
2023/06/22 07:16:12;;;;;;;7.55;4.93;;;;;;;;;;2069529;28;20034;-79
2023/06/22 07:17:31;;;;;;;6.55;4.60;;;;;;;;;;2062041;28;20547;-79
2023/06/22 07:18:50;;;;;;;6.78;5.18;;;;;;;;;;2061431;28;20023;-80
2023/06/22 07:20:12;;;;;;;12.77;4.88;;;;;;;;;;2061535;28;20039;-79
2023/06/22 07:21:31;;;;;;;6.38;4.78;;;;;;;;;;2068119;28;20041;-79
2023/06/22 07:22:51;;;;;;;4.82;4.10;;;;;;;;;;2064140;28;20446;-79
2023/06/22 07:24:16;;;;;;;5.55;4.78;;;;;;;;;;2062714;28;20507;-78
2023/06/22 07:25:35;;;;;;;8.45;4.93;;;;;;;;;;2069971;28;20030;-79
2023/06/22 07:26:54;;;;;;;9.00;5.45;;;;;;;;;;2068896;28;20503;-80
2023/06/22 07:28:13;;;;;;;5.80;5.30;;;;;;;;;;2071679;28;20042;-79
2023/06/22 07:29:33;;;;;;;5.03;4.63;;;;;;;;;;2074368;28;20030;-81
2023/06/22 07:30:52;;;;;;;7.22;5.07;;;;;;;;;;2065061;28;20026;-80
2023/06/22 07:32:11;;;;;;;6.95;5.18;;;;;;;;;;2064565;28;20038;-78
2023/06/22 07:33:30;;;;;;;7.13;4.95;;;;;;;;;;2069212;28;20026;-79
2023/06/22 07:34:49;;;;;;;7.85;5.07;;;;;;;;;;2072751;28;20416;-78
2023/06/22 07:36:08;;;;;;;6.82;5.15;;;;;;;;;;2066206;28;20030;-78
2023/06/22 07:37:28;;;;;;;6.45;4.90;;;;;;;;;;2070338;28;20136;-82
2023/06/22 07:38:47;;;;;;;6.78;4.60;;;;;;;;;;2058878;28;20031;-80
2023/06/22 07:40:07;;;;;;;6.10;4.75;;;;;;;;;;2067074;28;20029;-79
2023/06/22 07:41:26;;;;;;;5.97;4.63;;;;;;;;;;2063931;28;20023;-79
2023/06/22 07:42:48;;;;;;;7.45;4.68;;;;;;;;;;2070898;28;20506;-78
2023/06/22 07:44:07;;;;;;;5.13;4.32;;;;;;;;;;2070576;28;20025;-75
2023/06/22 07:45:26;;;;;;;7.35;5.10;;;;;;;;;;2065016;28;20027;-76
2023/06/22 07:46:47;;;;;;;7.07;4.45;;;;;;;;;;2068478;28;20034;-73
2023/06/22 07:48:09;;;;;;;6.05;4.25;;;;;;;;;;2075360;28;20030;-75
2023/06/22 07:49:29;;;;;;;6.07;4.20;;;;;;;;;;2067480;28;20082;-75
2023/06/22 07:50:48;;;;;;;5.78;4.35;;;;;;;;;;2072132;28;20034;-75
2023/06/22 07:52:08;;;;;;;5.57;4.88;;;;;;;;;;2073477;28;20090;-75
2023/06/22 07:53:28;;;;;;;8.90;4.80;;;;;;;;;;2065228;28;20066;-75
2023/06/22 07:54:47;;;;;;;4.47;4.07;;;;;;;;;;2053324;28;20101;-76
2023/06/22 07:56:09;;;;;;;7.40;5.32;;;;;;;;;;2067467;28;20030;-76
2023/06/22 07:57:36;;;;;;;8.98;4.50;;;;;;;;;;2064586;28;20030;-75
2023/06/22 07:58:58;;;;;;;8.55;4.50;;;;;;;;;;2071283;28;20113;-76
2023/06/22 08:00:17;;;;;;;5.35;4.70;;;;;;;;;;2065913;28;20030;-76